createdAt,value
2018-03-23T17:22:43.354Z,7.58
2018-03-23T17:23:43.312Z,7.55
2018-03-23T17:24:43.293Z,7.52
2018-03-23T17:25:43.284Z,7.53
2018-03-23T17:26:43.261Z,7.49
2018-03-23T17:27:43.229Z,7.42
2018-03-23T17:28:43.217Z,7.45
2018-03-23T17:29:43.205Z,7.35
2018-03-23T17:30:43.181Z,7.44
2018-03-23T17:31:43.156Z,7.41
2018-03-23T17:32:43.144Z,7.53
2018-03-23T17:33:43.131Z,7.50
2018-03-23T17:34:43.106Z,7.53
2018-03-23T17:35:43.086Z,7.53
2018-03-23T17:36:43.065Z,7.52
2018-03-23T17:37:43.066Z,7.56
2018-03-23T17:38:43.035Z,7.49
2018-03-23T17:39:43.005Z,7.49
2018-03-23T17:40:42.990Z,7.50
2018-03-23T17:41:42.980Z,7.52
2018-03-23T17:42:42.957Z,7.52
2018-03-23T17:43:42.938Z,7.42
2018-03-23T17:44:44.209Z,7.53
2018-03-23T17:45:42.906Z,7.41
2018-03-23T17:46:42.881Z,7.40
2018-03-23T17:47:42.858Z,7.44
2018-03-23T17:48:42.875Z,7.41
2018-03-23T17:49:42.832Z,7.45
2018-03-23T17:50:42.812Z,7.42
2018-03-23T17:51:42.793Z,7.45
2018-03-23T17:52:42.775Z,7.49
2018-03-23T17:53:42.761Z,7.40
2018-03-23T17:54:42.734Z,7.44
2018-03-23T17:55:42.772Z,7.42
2018-03-23T17:56:42.710Z,7.40
2018-03-23T17:57:42.683Z,7.32
2018-03-23T17:58:42.670Z,7.32
2018-03-23T17:59:42.646Z,7.29
2018-03-23T18:00:42.633Z,7.26
2018-03-23T18:01:42.611Z,7.27
2018-03-23T18:02:42.596Z,7.27
2018-03-23T18:03:42.573Z,7.31
2018-03-23T18:04:42.557Z,7.34
2018-03-23T18:05:42.534Z,7.26
2018-03-23T18:06:42.531Z,7.26
2018-03-23T18:07:42.542Z,7.23
2018-03-23T18:08:42.480Z,7.17
2018-03-23T18:09:42.467Z,7.20
2018-03-23T18:10:42.447Z,7.20
2018-03-23T18:11:42.431Z,7.15
2018-03-23T18:13:30.537Z,7.12
2018-03-23T18:14:30.509Z,7.12
2018-03-23T18:15:30.486Z,7.19
2018-03-23T18:16:30.464Z,7.09
2018-03-23T18:17:30.467Z,7.08
2018-03-23T18:18:30.436Z,7.08
2018-03-23T18:19:30.416Z,7.02
2018-03-23T18:20:30.397Z,7.04
2018-03-23T18:21:30.384Z,6.97
2018-03-23T18:22:30.367Z,6.98
2018-03-23T18:23:30.332Z,6.97
2018-03-23T18:24:30.338Z,7.01
2018-03-23T18:25:30.309Z,7.02
2018-03-23T18:26:30.278Z,6.97
2018-03-23T18:27:30.266Z,6.97
2018-03-23T18:28:30.246Z,7.02
2018-03-23T18:29:30.227Z,7.01
2018-03-23T18:30:30.209Z,6.97
2018-03-23T18:31:30.203Z,6.97
2018-03-23T18:32:30.178Z,7.01
2018-03-23T18:33:30.156Z,7.01
2018-03-23T18:34:30.142Z,6.98
2018-03-23T18:35:30.126Z,7.05
2018-03-23T18:36:30.113Z,7.02
2018-03-23T18:37:30.078Z,7.01
2018-03-23T18:38:30.071Z,7.05
2018-03-23T18:39:30.043Z,7.01
2018-03-23T18:40:30.037Z,6.97
2018-03-23T18:41:30.018Z,6.99
2018-03-23T18:42:30.000Z,6.99
2018-03-23T18:43:29.984Z,6.97
2018-03-23T18:44:29.960Z,6.97
2018-03-23T18:45:29.938Z,6.99
2018-03-23T18:46:29.916Z,6.95
2018-03-23T18:47:29.896Z,6.90
2018-03-23T18:48:29.878Z,6.89
2018-03-23T18:49:29.884Z,6.84
2018-03-23T18:50:29.852Z,6.79
2018-03-23T18:51:29.848Z,6.77
2018-03-23T18:52:29.814Z,6.73
2018-03-23T18:53:29.801Z,6.76
2018-03-23T18:54:29.792Z,6.76
2018-03-23T18:55:29.775Z,6.61
2018-03-23T18:56:29.740Z,6.68
2018-03-23T18:57:29.721Z,6.69
2018-03-23T18:58:29.700Z,6.66
2018-03-23T18:59:29.692Z,6.63
2018-03-23T19:00:29.679Z,6.56
2018-03-23T19:01:29.656Z,6.58
2018-03-23T19:02:29.634Z,6.51
2018-03-23T19:03:29.612Z,6.53
2018-03-23T19:04:29.590Z,6.47
2018-03-23T19:05:29.575Z,6.51
2018-03-23T19:06:29.551Z,6.44
2018-03-23T19:07:29.604Z,6.48
2018-03-23T19:08:29.535Z,6.48
2018-03-23T19:09:29.494Z,6.38
2018-03-23T19:10:29.487Z,6.43
2018-03-23T19:11:29.463Z,6.43
2018-03-23T19:12:29.450Z,6.40
2018-03-23T19:13:29.421Z,6.35
2018-03-23T19:14:29.402Z,6.38
2018-03-23T19:15:29.467Z,6.36
2018-03-23T19:16:29.364Z,6.18
2018-03-23T19:17:29.364Z,6.26
2018-03-23T19:18:29.344Z,6.30
2018-03-23T19:19:29.386Z,6.22
2018-03-23T19:20:29.291Z,6.19
2018-03-23T19:21:29.272Z,6.18
2018-03-23T19:22:29.255Z,6.19
2018-03-23T19:23:29.230Z,6.19
2018-03-23T19:24:29.208Z,6.10
2018-03-23T19:25:29.195Z,6.16
2018-03-23T19:26:29.185Z,6.14
2018-03-23T19:27:29.157Z,6.16
2018-03-23T19:28:29.156Z,6.18
2018-03-23T19:29:29.122Z,6.14
2018-03-23T19:30:29.103Z,6.19
2018-03-23T19:31:29.090Z,6.16
2018-03-23T19:32:29.064Z,6.18
2018-03-23T19:33:29.057Z,6.16
2018-03-23T19:34:29.032Z,6.19
2018-03-23T19:35:29.012Z,6.18
2018-03-23T19:36:28.995Z,6.22
2018-03-23T19:37:28.974Z,6.18
2018-03-23T19:38:28.954Z,6.19
2018-03-23T19:39:28.942Z,6.25
2018-03-23T19:40:28.919Z,6.14
2018-03-23T19:41:28.948Z,6.18
2018-03-23T19:42:28.880Z,6.03
2018-03-23T19:43:28.861Z,6.14
2018-03-23T19:44:28.846Z,6.06
2018-03-23T19:45:28.838Z,5.98
2018-03-23T19:46:28.805Z,6.11
2018-03-23T19:47:28.808Z,6.09
2018-03-23T19:48:28.770Z,6.07
2018-03-23T19:49:28.757Z,6.06
2018-03-23T19:50:28.733Z,6.00
2018-03-23T19:51:28.716Z,6.03
2018-03-23T19:52:28.691Z,5.98
2018-03-23T19:53:28.674Z,6.01
2018-03-23T19:54:28.720Z,6.00
2018-03-23T19:55:28.632Z,6.01
2018-03-23T19:56:28.646Z,6.00
2018-03-23T19:57:28.593Z,6.01
2018-03-23T19:58:28.584Z,5.95
2018-03-23T19:59:28.565Z,5.92
2018-03-23T20:00:28.540Z,5.93
2018-03-23T20:01:28.536Z,6.01
2018-03-23T20:02:28.505Z,5.96
2018-03-23T20:03:28.478Z,6.00
2018-03-23T20:04:28.465Z,6.03
2018-03-23T20:05:28.437Z,6.03
2018-03-23T20:06:28.443Z,5.91
2018-03-23T20:07:28.400Z,5.86
2018-03-23T20:08:28.388Z,5.89
2018-03-23T20:09:28.368Z,5.91
2018-03-23T20:10:28.348Z,5.88
2018-03-23T20:11:28.330Z,5.88
2018-03-23T20:12:28.317Z,5.89
2018-03-23T20:13:28.290Z,5.89
2018-03-23T20:14:28.275Z,5.98
2018-03-23T20:15:28.255Z,6.00
2018-03-23T20:16:28.245Z,6.06
2018-03-23T20:17:28.212Z,6.00
2018-03-23T20:18:28.215Z,5.92
2018-03-23T20:19:28.186Z,5.98
2018-03-23T20:20:28.167Z,5.96
2018-03-23T20:21:28.167Z,5.83
2018-03-23T20:22:28.124Z,5.88
2018-03-23T20:23:28.100Z,5.81
2018-03-23T20:24:28.082Z,5.75
2018-03-23T20:25:28.068Z,5.83
2018-03-23T20:26:28.049Z,5.73
2018-03-23T20:27:28.023Z,5.77
2018-03-23T20:28:28.013Z,5.77
2018-03-23T20:29:27.995Z,5.75
2018-03-23T20:30:27.979Z,5.71
2018-03-23T20:31:27.953Z,5.74
2018-03-23T20:32:27.937Z,5.73
2018-03-23T20:33:27.933Z,5.74
2018-03-23T20:34:27.897Z,5.74
2018-03-23T20:35:27.885Z,5.75
2018-03-23T20:36:27.866Z,5.70
2018-03-23T20:37:27.840Z,5.70
2018-03-23T20:38:27.829Z,5.64
2018-03-23T20:39:27.819Z,5.70
2018-03-23T20:40:27.773Z,5.67
2018-03-23T20:41:27.769Z,5.66
2018-03-23T20:42:27.740Z,5.68
2018-03-23T20:43:27.717Z,5.78
2018-03-23T20:44:27.725Z,5.66
2018-03-23T20:45:27.692Z,5.60
2018-03-23T20:46:27.670Z,5.59
2018-03-23T20:47:27.650Z,5.63
2018-03-23T20:48:27.647Z,5.56
2018-03-23T20:49:27.602Z,5.56
2018-03-23T20:50:27.598Z,5.49
2018-03-23T20:51:27.571Z,5.49
2018-03-23T20:52:27.548Z,5.48
2018-03-23T20:53:27.548Z,5.45
2018-03-23T20:54:27.510Z,5.45
2018-03-23T20:55:27.487Z,5.37
2018-03-23T20:56:27.469Z,5.49
2018-03-23T20:57:27.449Z,5.46
2018-03-23T20:58:27.430Z,5.55
2018-03-23T20:59:27.414Z,5.45
2018-03-23T21:00:27.416Z,5.41
2018-03-23T21:01:27.389Z,5.41
2018-03-23T21:02:27.373Z,5.35
2018-03-23T21:03:27.351Z,5.45
2018-03-23T21:04:27.341Z,5.40
2018-03-23T21:05:27.308Z,5.37
2018-03-23T21:06:28.109Z,5.46
2018-03-23T21:07:27.277Z,5.41
2018-03-23T21:08:27.250Z,5.37
2018-03-23T21:09:27.222Z,5.37
2018-03-23T21:10:27.207Z,5.37
2018-03-23T21:11:27.190Z,5.35
2018-03-23T21:12:27.163Z,5.35
2018-03-23T21:13:27.142Z,5.38
2018-03-23T21:14:27.126Z,5.43
2018-03-23T21:15:27.104Z,5.32
2018-03-23T21:16:27.088Z,5.17
2018-03-23T21:17:27.066Z,5.34
2018-03-23T21:18:27.054Z,5.27
2018-03-23T21:19:27.033Z,5.32
2018-03-23T21:20:27.006Z,5.28
2018-03-23T21:21:26.987Z,5.34
2018-03-23T21:22:26.975Z,5.23
2018-03-23T21:23:26.955Z,5.22
2018-03-23T21:24:26.936Z,5.20
2018-03-23T21:25:26.918Z,5.30
2018-03-23T21:26:26.895Z,5.28
2018-03-23T21:27:26.875Z,5.14
2018-03-23T21:28:26.875Z,5.12
2018-03-23T21:29:26.831Z,5.20
2018-03-23T21:30:26.815Z,5.30
2018-03-23T21:31:26.790Z,5.31
2018-03-23T21:32:26.780Z,5.25
2018-03-23T21:33:26.751Z,5.27
2018-03-23T21:34:26.759Z,5.13
2018-03-23T21:35:26.723Z,5.20
2018-03-23T21:36:26.722Z,5.16
2018-03-23T21:37:26.680Z,5.12
2018-03-23T21:38:26.661Z,5.23
2018-03-23T21:39:26.639Z,5.28
2018-03-23T21:40:26.627Z,5.28
2018-03-23T21:41:26.610Z,5.17
2018-03-23T21:42:26.584Z,5.19
2018-03-23T21:43:26.564Z,5.20
2018-03-23T21:44:26.554Z,5.14
2018-03-23T21:45:26.550Z,5.19
2018-03-23T21:46:26.507Z,5.17
2018-03-23T21:47:26.484Z,5.16
2018-03-23T21:48:26.466Z,5.05
2018-03-23T21:49:26.442Z,5.12
2018-03-23T21:50:26.431Z,5.10
2018-03-23T21:51:26.416Z,5.09
2018-03-23T21:52:26.391Z,5.10
2018-03-23T21:53:26.368Z,5.10
2018-03-23T21:54:26.365Z,5.09
2018-03-23T21:55:26.326Z,5.12
2018-03-23T21:56:26.307Z,5.23
2018-03-23T21:57:26.284Z,5.19
2018-03-23T21:58:26.269Z,5.19
2018-03-23T21:59:26.256Z,5.16
2018-03-23T22:00:26.238Z,5.17
2018-03-23T22:01:26.214Z,5.23
2018-03-23T22:02:26.196Z,5.22
2018-03-23T22:03:26.168Z,5.13
2018-03-23T22:04:26.158Z,5.22
2018-03-23T22:05:26.140Z,5.30
2018-03-23T22:06:26.120Z,5.27
2018-03-23T22:07:26.085Z,5.25
2018-03-23T22:08:26.081Z,5.20
2018-03-23T22:09:26.059Z,5.17
2018-03-23T22:10:26.040Z,5.23
2018-03-23T22:11:26.034Z,5.32
2018-03-23T22:12:26.001Z,5.32
2018-03-23T22:13:26.043Z,5.37
2018-03-23T22:14:25.966Z,5.34
2018-03-23T22:15:25.934Z,5.37
2018-03-23T22:16:25.934Z,5.34
2018-03-23T22:17:25.892Z,5.28
2018-03-23T22:18:25.882Z,5.28
2018-03-23T22:19:25.860Z,5.38
2018-03-23T22:20:25.848Z,5.34
2018-03-23T22:21:25.816Z,5.32
2018-03-23T22:22:25.800Z,5.41
2018-03-23T22:23:25.780Z,5.49
2018-03-23T22:24:25.765Z,5.41
2018-03-23T22:25:25.748Z,5.37
2018-03-23T22:26:25.733Z,5.35
2018-03-23T22:27:25.716Z,5.31
2018-03-23T22:28:25.691Z,5.46
2018-03-23T22:29:25.663Z,5.31
2018-03-23T22:30:25.646Z,5.41
2018-03-23T22:31:25.648Z,5.34
2018-03-23T22:32:25.600Z,5.43
2018-03-23T22:33:25.591Z,5.37
2018-03-23T22:34:25.605Z,5.32
2018-03-23T22:35:25.549Z,5.40
2018-03-23T22:36:25.532Z,5.31
2018-03-23T22:37:25.502Z,5.32
2018-03-23T22:38:25.493Z,5.38
2018-03-23T22:39:25.460Z,5.31
2018-03-23T22:40:25.449Z,5.35
2018-03-23T22:41:25.445Z,5.40
2018-03-23T22:42:25.404Z,5.38
2018-03-23T22:43:25.399Z,5.30
2018-03-23T22:44:29.375Z,5.30
2018-03-23T22:45:30.657Z,5.32
2018-03-23T22:52:46.189Z,4.79
2018-03-23T22:53:37.414Z,4.70
2018-03-23T22:54:38.447Z,4.76
2018-03-23T22:55:37.672Z,4.83
2018-03-23T22:56:37.073Z,4.79
2018-03-23T22:57:48.807Z,4.77
2018-03-23T22:59:32.329Z,4.80
2018-03-23T23:00:32.482Z,4.67
2018-03-23T23:01:32.131Z,4.64
2018-03-23T23:02:32.186Z,4.67
2018-03-23T23:03:31.712Z,4.65
2018-03-23T23:04:31.674Z,4.51
2018-03-23T23:05:32.042Z,4.58
2018-03-23T23:06:32.346Z,4.58
2018-03-23T23:07:32.391Z,4.57
2018-03-23T23:08:31.412Z,4.52
2018-03-23T23:09:31.542Z,4.47
2018-03-23T23:10:31.936Z,4.54
2018-03-23T23:11:31.872Z,4.46
2018-03-23T23:12:32.499Z,4.36
2018-03-23T23:13:33.446Z,4.32
2018-03-23T23:14:31.472Z,4.34
2018-03-23T23:15:31.519Z,4.28
2018-03-23T23:16:31.354Z,4.25
2018-03-23T23:17:32.766Z,4.32
2018-03-23T23:18:31.247Z,4.25
2018-03-23T23:19:31.746Z,4.32
2018-03-23T23:20:31.247Z,4.34
2018-03-23T23:21:31.662Z,4.37
2018-03-23T23:22:31.352Z,4.25
2018-03-23T23:23:31.203Z,4.19
2018-03-23T23:24:31.240Z,4.24
2018-03-23T23:25:31.282Z,4.14
2018-03-23T23:26:31.075Z,4.18
2018-03-23T23:27:30.897Z,4.15
2018-03-23T23:28:39.166Z,4.08
2018-03-23T23:29:32.074Z,4.25
2018-03-23T23:30:30.998Z,4.18
2018-03-23T23:31:31.997Z,4.16
2018-03-23T23:32:31.470Z,4.28
2018-03-23T23:33:31.004Z,4.29
2018-03-23T23:34:31.940Z,4.25
2018-03-23T23:35:31.343Z,4.32
2018-03-23T23:36:40.355Z,4.33
2018-03-23T23:41:03.341Z,4.51
2018-03-23T23:42:03.297Z,4.39
2018-03-23T23:43:03.044Z,4.37
2018-03-23T23:44:03.835Z,4.33
2018-03-23T23:45:03.495Z,4.22
2018-03-23T23:46:02.832Z,4.19
2018-03-23T23:47:02.634Z,4.07
2018-03-23T23:48:02.717Z,4.12
2018-03-23T23:49:02.985Z,4.07
2018-03-23T23:50:02.523Z,4.15
2018-03-23T23:51:02.507Z,4.10
2018-03-23T23:52:02.556Z,4.00
2018-03-23T23:53:02.978Z,4.00
2018-03-23T23:54:02.841Z,3.89
2018-03-23T23:55:02.343Z,3.89
2018-03-23T23:56:02.600Z,3.97
2018-03-23T23:57:02.619Z,3.92
2018-03-23T23:58:03.501Z,3.90
2018-03-23T23:59:05.981Z,3.86
